sensor_id;sensor_type;location;lat;lon;timestamp;temperature;humidity
78461;SHT31;67755;51.986;5.696;2024-03-17T00:00:39;10.2;59.1
78461;SHT31;67755;51.986;5.696;2024-03-17T00:03:09;10.2;59.1
78461;SHT31;67755;51.986;5.696;2024-03-17T00:05:38;10.2;59.1
78461;SHT31;67755;51.986;5.696;2024-03-17T00:08:07;10.2;59.3
78461;SHT31;67755;51.986;5.696;2024-03-17T00:10:35;10.2;59.5
78461;SHT31;67755;51.986;5.696;2024-03-17T00:13:04;10.2;59.4
78461;SHT31;67755;51.986;5.696;2024-03-17T00:15:32;10.2;59.2
78461;SHT31;67755;51.986;5.696;2024-03-17T00:18:01;10.2;59.6
78461;SHT31;67755;51.986;5.696;2024-03-17T00:20:30;10.2;59.7
78461;SHT31;67755;51.986;5.696;2024-03-17T00:23:00;10.2;59.7
78461;SHT31;67755;51.986;5.696;2024-03-17T00:25:29;10.2;59.7
78461;SHT31;67755;51.986;5.696;2024-03-17T00:27:57;10.2;59.9
78461;SHT31;67755;51.986;5.696;2024-03-17T00:30:26;10.2;59.9
78461;SHT31;67755;51.986;5.696;2024-03-17T00:32:54;10.2;60.0
78461;SHT31;67755;51.986;5.696;2024-03-17T00:35:25;10.2;60.0
78461;SHT31;67755;51.986;5.696;2024-03-17T00:37:54;10.2;59.8
78461;SHT31;67755;51.986;5.696;2024-03-17T00:40:22;10.2;59.8
78461;SHT31;67755;51.986;5.696;2024-03-17T00:42:51;10.2;60.1
78461;SHT31;67755;51.986;5.696;2024-03-17T00:45:20;10.2;60.2
78461;SHT31;67755;51.986;5.696;2024-03-17T00:47:49;10.2;60.2
78461;SHT31;67755;51.986;5.696;2024-03-17T00:50:20;10.2;60.5
78461;SHT31;67755;51.986;5.696;2024-03-17T00:52:48;10.2;60.6
78461;SHT31;67755;51.986;5.696;2024-03-17T00:55:17;10.1;60.2
78461;SHT31;67755;51.986;5.696;2024-03-17T00:57:45;10.1;60.5
78461;SHT31;67755;51.986;5.696;2024-03-17T01:00:16;10.1;60.6
78461;SHT31;67755;51.986;5.696;2024-03-17T01:02:45;10.1;60.4
78461;SHT31;67755;51.986;5.696;2024-03-17T01:05:14;10.1;60.8
78461;SHT31;67755;51.986;5.696;2024-03-17T01:07:42;10.1;61.0
78461;SHT31;67755;51.986;5.696;2024-03-17T01:10:13;10.1;61.0
78461;SHT31;67755;51.986;5.696;2024-03-17T01:12:42;10.2;61.0
78461;SHT31;67755;51.986;5.696;2024-03-17T01:15:12;10.2;61.1
78461;SHT31;67755;51.986;5.696;2024-03-17T01:17:40;10.2;61.0
78461;SHT31;67755;51.986;5.696;2024-03-17T01:20:10;10.2;61.0
78461;SHT31;67755;51.986;5.696;2024-03-17T01:22:38;10.2;61.2
78461;SHT31;67755;51.986;5.696;2024-03-17T01:25:07;10.2;61.1
78461;SHT31;67755;51.986;5.696;2024-03-17T01:27:36;10.2;61.0
78461;SHT31;67755;51.986;5.696;2024-03-17T01:30:05;10.2;61.0
78461;SHT31;67755;51.986;5.696;2024-03-17T01:32:34;10.2;61.0
78461;SHT31;67755;51.986;5.696;2024-03-17T01:35:03;10.2;61.0
78461;SHT31;67755;51.986;5.696;2024-03-17T01:37:32;10.2;61.1
78461;SHT31;67755;51.986;5.696;2024-03-17T01:40:01;10.2;61.1
78461;SHT31;67755;51.986;5.696;2024-03-17T01:42:31;10.2;60.7
78461;SHT31;67755;51.986;5.696;2024-03-17T01:44:59;10.2;61.1
78461;SHT31;67755;51.986;5.696;2024-03-17T01:47:28;10.2;61.2
78461;SHT31;67755;51.986;5.696;2024-03-17T01:49:56;10.2;61.0
78461;SHT31;67755;51.986;5.696;2024-03-17T01:52:25;10.2;61.2
78461;SHT31;67755;51.986;5.696;2024-03-17T01:54:53;10.2;61.2
78461;SHT31;67755;51.986;5.696;2024-03-17T01:57:22;10.2;61.0
78461;SHT31;67755;51.986;5.696;2024-03-17T01:59:50;10.2;60.9
78461;SHT31;67755;51.986;5.696;2024-03-17T02:02:19;10.2;60.9
78461;SHT31;67755;51.986;5.696;2024-03-17T02:04:48;10.2;60.8
78461;SHT31;67755;51.986;5.696;2024-03-17T02:07:16;10.2;60.8
78461;SHT31;67755;51.986;5.696;2024-03-17T02:09:47;10.2;60.8
78461;SHT31;67755;51.986;5.696;2024-03-17T02:12:15;10.2;60.8
78461;SHT31;67755;51.986;5.696;2024-03-17T02:14:44;10.2;60.8
78461;SHT31;67755;51.986;5.696;2024-03-17T02:17:12;10.2;60.7
78461;SHT31;67755;51.986;5.696;2024-03-17T02:19:41;10.2;60.7
78461;SHT31;67755;51.986;5.696;2024-03-17T02:22:13;10.2;60.7
78461;SHT31;67755;51.986;5.696;2024-03-17T02:24:43;10.2;60.8
78461;SHT31;67755;51.986;5.696;2024-03-17T02:27:12;10.2;60.6
78461;SHT31;67755;51.986;5.696;2024-03-17T02:29:41;10.2;60.8
78461;SHT31;67755;51.986;5.696;2024-03-17T02:32:10;10.2;61.1
78461;SHT31;67755;51.986;5.696;2024-03-17T02:34:39;10.2;61.0
78461;SHT31;67755;51.986;5.696;2024-03-17T02:37:07;10.2;60.9
78461;SHT31;67755;51.986;5.696;2024-03-17T02:39:36;10.2;61.0
78461;SHT31;67755;51.986;5.696;2024-03-17T02:42:06;10.2;61.1
78461;SHT31;67755;51.986;5.696;2024-03-17T02:44:37;10.2;61.5
78461;SHT31;67755;51.986;5.696;2024-03-17T02:47:06;10.2;61.8
78461;SHT31;67755;51.986;5.696;2024-03-17T02:49:37;10.2;61.9
78461;SHT31;67755;51.986;5.696;2024-03-17T02:52:07;10.2;61.7
78461;SHT31;67755;51.986;5.696;2024-03-17T02:54:38;10.2;62.0
78461;SHT31;67755;51.986;5.696;2024-03-17T02:57:07;10.2;62.2
78461;SHT31;67755;51.986;5.696;2024-03-17T02:59:35;10.2;62.4
78461;SHT31;67755;51.986;5.696;2024-03-17T03:02:06;10.2;62.3
78461;SHT31;67755;51.986;5.696;2024-03-17T03:04:38;10.2;62.5
78461;SHT31;67755;51.986;5.696;2024-03-17T03:07:07;10.3;62.7
78461;SHT31;67755;51.986;5.696;2024-03-17T03:09:35;10.3;62.9
78461;SHT31;67755;51.986;5.696;2024-03-17T03:12:05;10.3;62.9
78461;SHT31;67755;51.986;5.696;2024-03-17T03:14:34;10.3;62.9
78461;SHT31;67755;51.986;5.696;2024-03-17T03:17:03;10.3;62.5
78461;SHT31;67755;51.986;5.696;2024-03-17T03:19:31;10.3;62.9
78461;SHT31;67755;51.986;5.696;2024-03-17T03:22:00;10.3;62.9
78461;SHT31;67755;51.986;5.696;2024-03-17T03:24:29;10.4;63.0
78461;SHT31;67755;51.986;5.696;2024-03-17T03:26:59;10.4;62.5
78461;SHT31;67755;51.986;5.696;2024-03-17T03:29:27;10.4;63.1
78461;SHT31;67755;51.986;5.696;2024-03-17T03:31:55;10.4;63.0
78461;SHT31;67755;51.986;5.696;2024-03-17T03:34:25;10.4;62.8
78461;SHT31;67755;51.986;5.696;2024-03-17T03:36:53;10.4;62.6
78461;SHT31;67755;51.986;5.696;2024-03-17T03:39:22;10.4;62.8
78461;SHT31;67755;51.986;5.696;2024-03-17T03:41:53;10.5;62.9
78461;SHT31;67755;51.986;5.696;2024-03-17T03:44:22;10.5;62.8
78461;SHT31;67755;51.986;5.696;2024-03-17T03:46:50;10.5;62.5
78461;SHT31;67755;51.986;5.696;2024-03-17T03:49:23;10.5;62.5
78461;SHT31;67755;51.986;5.696;2024-03-17T03:51:51;10.5;62.7
78461;SHT31;67755;51.986;5.696;2024-03-17T03:54:20;10.5;62.7
78461;SHT31;67755;51.986;5.696;2024-03-17T03:56:49;10.5;62.8
78461;SHT31;67755;51.986;5.696;2024-03-17T03:59:17;10.6;63.0
78461;SHT31;67755;51.986;5.696;2024-03-17T04:01:46;10.6;62.6
78461;SHT31;67755;51.986;5.696;2024-03-17T04:04:16;10.6;62.6
78461;SHT31;67755;51.986;5.696;2024-03-17T04:06:44;10.6;62.6
78461;SHT31;67755;51.986;5.696;2024-03-17T04:09:13;10.6;62.7
78461;SHT31;67755;51.986;5.696;2024-03-17T04:11:41;10.6;62.6
78461;SHT31;67755;51.986;5.696;2024-03-17T04:14:10;10.6;62.8
78461;SHT31;67755;51.986;5.696;2024-03-17T04:16:38;10.6;62.8
78461;SHT31;67755;51.986;5.696;2024-03-17T04:19:07;10.7;62.5
78461;SHT31;67755;51.986;5.696;2024-03-17T04:21:35;10.7;62.6
78461;SHT31;67755;51.986;5.696;2024-03-17T04:24:04;10.7;62.0
78461;SHT31;67755;51.986;5.696;2024-03-17T04:26:33;10.7;62.3
78461;SHT31;67755;51.986;5.696;2024-03-17T04:29:02;10.7;62.1
78461;SHT31;67755;51.986;5.696;2024-03-17T04:31:31;10.7;61.7
78461;SHT31;67755;51.986;5.696;2024-03-17T04:34:00;10.7;61.7
78461;SHT31;67755;51.986;5.696;2024-03-17T04:36:28;10.7;61.7
78461;SHT31;67755;51.986;5.696;2024-03-17T04:38:57;10.7;61.7
78461;SHT31;67755;51.986;5.696;2024-03-17T04:41:26;10.7;61.3
78461;SHT31;67755;51.986;5.696;2024-03-17T04:43:54;10.7;61.3
78461;SHT31;67755;51.986;5.696;2024-03-17T04:46:23;10.7;61.2
78461;SHT31;67755;51.986;5.696;2024-03-17T04:48:52;10.7;61.2
78461;SHT31;67755;51.986;5.696;2024-03-17T04:51:20;10.7;61.1
78461;SHT31;67755;51.986;5.696;2024-03-17T04:53:49;10.7;61.1
78461;SHT31;67755;51.986;5.696;2024-03-17T04:56:18;10.7;61.3
78461;SHT31;67755;51.986;5.696;2024-03-17T04:58:46;10.7;61.3
78461;SHT31;67755;51.986;5.696;2024-03-17T05:01:15;10.7;61.4
78461;SHT31;67755;51.986;5.696;2024-03-17T05:03:45;10.7;61.5
78461;SHT31;67755;51.986;5.696;2024-03-17T05:06:13;10.7;61.3
78461;SHT31;67755;51.986;5.696;2024-03-17T05:08:42;10.7;61.5
78461;SHT31;67755;51.986;5.696;2024-03-17T05:11:11;10.7;61.7
78461;SHT31;67755;51.986;5.696;2024-03-17T05:13:40;10.7;61.8
78461;SHT31;67755;51.986;5.696;2024-03-17T05:16:09;10.7;61.8
78461;SHT31;67755;51.986;5.696;2024-03-17T05:18:37;10.7;61.9
78461;SHT31;67755;51.986;5.696;2024-03-17T05:21:06;10.7;62.1
78461;SHT31;67755;51.986;5.696;2024-03-17T05:23:37;10.7;62.1
78461;SHT31;67755;51.986;5.696;2024-03-17T05:26:06;10.7;62.3
78461;SHT31;67755;51.986;5.696;2024-03-17T05:28:34;10.7;62.3
78461;SHT31;67755;51.986;5.696;2024-03-17T05:31:03;10.7;62.3
78461;SHT31;67755;51.986;5.696;2024-03-17T05:33:31;10.7;62.2
78461;SHT31;67755;51.986;5.696;2024-03-17T05:36:01;10.7;62.2
78461;SHT31;67755;51.986;5.696;2024-03-17T05:38:31;10.7;62.5
78461;SHT31;67755;51.986;5.696;2024-03-17T05:41:02;10.7;62.3
78461;SHT31;67755;51.986;5.696;2024-03-17T05:43:32;10.7;62.4
78461;SHT31;67755;51.986;5.696;2024-03-17T05:46:04;10.7;62.5
78461;SHT31;67755;51.986;5.696;2024-03-17T05:48:34;10.7;62.4
78461;SHT31;67755;51.986;5.696;2024-03-17T05:51:04;10.7;62.5
78461;SHT31;67755;51.986;5.696;2024-03-17T05:53:34;10.7;62.7
78461;SHT31;67755;51.986;5.696;2024-03-17T05:56:04;10.7;62.5
78461;SHT31;67755;51.986;5.696;2024-03-17T05:58:34;10.7;62.6
78461;SHT31;67755;51.986;5.696;2024-03-17T06:01:04;10.7;62.5
78461;SHT31;67755;51.986;5.696;2024-03-17T06:03:33;10.7;63.0
78461;SHT31;67755;51.986;5.696;2024-03-17T06:06:04;10.7;62.8
78461;SHT31;67755;51.986;5.696;2024-03-17T06:08:34;10.8;62.9
78461;SHT31;67755;51.986;5.696;2024-03-17T06:11:02;10.8;63.0
78461;SHT31;67755;51.986;5.696;2024-03-17T06:13:31;10.8;63.1
78461;SHT31;67755;51.986;5.696;2024-03-17T06:16:01;10.8;63.0
78461;SHT31;67755;51.986;5.696;2024-03-17T06:18:31;10.8;62.8
78461;SHT31;67755;51.986;5.696;2024-03-17T06:21:04;10.8;62.7
78461;SHT31;67755;51.986;5.696;2024-03-17T06:23:35;10.8;63.2
78461;SHT31;67755;51.986;5.696;2024-03-17T06:26:04;10.8;63.2
78461;SHT31;67755;51.986;5.696;2024-03-17T06:28:33;10.8;63.2
78461;SHT31;67755;51.986;5.696;2024-03-17T06:31:02;10.8;63.2
78461;SHT31;67755;51.986;5.696;2024-03-17T06:33:33;10.8;63.3
78461;SHT31;67755;51.986;5.696;2024-03-17T06:36:03;10.8;63.4
78461;SHT31;67755;51.986;5.696;2024-03-17T06:38:32;10.8;63.5
78461;SHT31;67755;51.986;5.696;2024-03-17T06:41:03;10.8;63.4
78461;SHT31;67755;51.986;5.696;2024-03-17T06:43:31;10.9;63.6
78461;SHT31;67755;51.986;5.696;2024-03-17T06:46:01;10.9;63.6
78461;SHT31;67755;51.986;5.696;2024-03-17T06:48:30;10.9;63.8
78461;SHT31;67755;51.986;5.696;2024-03-17T06:50:59;10.9;63.1
78461;SHT31;67755;51.986;5.696;2024-03-17T06:53:28;10.9;62.3
78461;SHT31;67755;51.986;5.696;2024-03-17T06:55:58;11.0;62.9
78461;SHT31;67755;51.986;5.696;2024-03-17T06:58:28;11.0;62.9
78461;SHT31;67755;51.986;5.696;2024-03-17T07:00:58;11.0;62.8
78461;SHT31;67755;51.986;5.696;2024-03-17T07:03:29;11.0;62.7
78461;SHT31;67755;51.986;5.696;2024-03-17T07:05:59;11.0;63.1
78461;SHT31;67755;51.986;5.696;2024-03-17T07:08:30;11.0;63.7
78461;SHT31;67755;51.986;5.696;2024-03-17T07:11:01;11.0;63.5
78461;SHT31;67755;51.986;5.696;2024-03-17T07:13:33;11.0;64.3
78461;SHT31;67755;51.986;5.696;2024-03-17T07:16:04;11.1;64.1
78461;SHT31;67755;51.986;5.696;2024-03-17T07:18:35;11.1;63.8
78461;SHT31;67755;51.986;5.696;2024-03-17T07:21:04;11.1;63.9
78461;SHT31;67755;51.986;5.696;2024-03-17T07:23:36;11.1;64.4
78461;SHT31;67755;51.986;5.696;2024-03-17T07:26:05;11.2;64.1
78461;SHT31;67755;51.986;5.696;2024-03-17T07:28:35;11.2;63.3
78461;SHT31;67755;51.986;5.696;2024-03-17T07:31:08;11.2;62.6
78461;SHT31;67755;51.986;5.696;2024-03-17T07:33:38;11.3;62.2
78461;SHT31;67755;51.986;5.696;2024-03-17T07:36:08;11.3;62.2
78461;SHT31;67755;51.986;5.696;2024-03-17T07:38:37;11.3;62.4
78461;SHT31;67755;51.986;5.696;2024-03-17T07:41:07;11.4;62.2
78461;SHT31;67755;51.986;5.696;2024-03-17T07:43:38;11.4;62.4
78461;SHT31;67755;51.986;5.696;2024-03-17T07:46:08;11.4;61.9
78461;SHT31;67755;51.986;5.696;2024-03-17T07:48:40;11.4;61.9
78461;SHT31;67755;51.986;5.696;2024-03-17T07:51:09;11.5;61.7
78461;SHT31;67755;51.986;5.696;2024-03-17T07:53:40;11.5;61.2
78461;SHT31;67755;51.986;5.696;2024-03-17T07:56:12;11.5;60.5
78461;SHT31;67755;51.986;5.696;2024-03-17T07:58:43;11.6;60.0
78461;SHT31;67755;51.986;5.696;2024-03-17T08:01:15;11.6;60.3
78461;SHT31;67755;51.986;5.696;2024-03-17T08:03:46;11.6;60.3
78461;SHT31;67755;51.986;5.696;2024-03-17T08:06:17;11.7;60.5
78461;SHT31;67755;51.986;5.696;2024-03-17T08:08:49;11.7;60.2
78461;SHT31;67755;51.986;5.696;2024-03-17T08:11:17;11.7;59.5
78461;SHT31;67755;51.986;5.696;2024-03-17T08:13:46;11.8;60.5
78461;SHT31;67755;51.986;5.696;2024-03-17T08:16:15;11.8;59.9
78461;SHT31;67755;51.986;5.696;2024-03-17T08:18:45;11.8;59.0
78461;SHT31;67755;51.986;5.696;2024-03-17T08:21:14;11.9;59.3
78461;SHT31;67755;51.986;5.696;2024-03-17T08:23:42;11.9;59.7
78461;SHT31;67755;51.986;5.696;2024-03-17T08:26:13;12.0;59.3
78461;SHT31;67755;51.986;5.696;2024-03-17T08:28:44;12.0;59.2
78461;SHT31;67755;51.986;5.696;2024-03-17T08:31:13;12.1;58.6
78461;SHT31;67755;51.986;5.696;2024-03-17T08:33:42;12.1;58.2
78461;SHT31;67755;51.986;5.696;2024-03-17T08:36:11;12.2;58.8
78461;SHT31;67755;51.986;5.696;2024-03-17T08:38:39;12.2;59.7
78461;SHT31;67755;51.986;5.696;2024-03-17T08:41:09;12.3;58.2
78461;SHT31;67755;51.986;5.696;2024-03-17T08:43:39;12.3;59.1
78461;SHT31;67755;51.986;5.696;2024-03-17T08:46:10;12.4;59.5
78461;SHT31;67755;51.986;5.696;2024-03-17T08:48:41;12.4;61.2
78461;SHT31;67755;51.986;5.696;2024-03-17T08:51:10;12.4;59.8
78461;SHT31;67755;51.986;5.696;2024-03-17T08:53:38;12.5;59.4
78461;SHT31;67755;51.986;5.696;2024-03-17T08:56:08;12.5;58.8
78461;SHT31;67755;51.986;5.696;2024-03-17T08:58:36;12.5;58.2
78461;SHT31;67755;51.986;5.696;2024-03-17T09:01:06;12.6;57.4
78461;SHT31;67755;51.986;5.696;2024-03-17T09:03:36;12.6;57.5
78461;SHT31;67755;51.986;5.696;2024-03-17T09:06:15;12.6;58.5
78461;SHT31;67755;51.986;5.696;2024-03-17T09:08:46;12.6;58.7
78461;SHT31;67755;51.986;5.696;2024-03-17T09:11:14;12.7;58.3
78461;SHT31;67755;51.986;5.696;2024-03-17T09:13:43;12.7;58.8
78461;SHT31;67755;51.986;5.696;2024-03-17T09:16:12;12.7;58.3
78461;SHT31;67755;51.986;5.696;2024-03-17T09:18:40;12.8;59.5
78461;SHT31;67755;51.986;5.696;2024-03-17T09:21:09;12.8;59.0
78461;SHT31;67755;51.986;5.696;2024-03-17T09:23:39;12.8;60.6
78461;SHT31;67755;51.986;5.696;2024-03-17T09:26:09;12.9;58.5
78461;SHT31;67755;51.986;5.696;2024-03-17T09:28:39;12.9;58.5
78461;SHT31;67755;51.986;5.696;2024-03-17T09:31:08;12.9;58.5
78461;SHT31;67755;51.986;5.696;2024-03-17T09:33:37;13.0;58.2
78461;SHT31;67755;51.986;5.696;2024-03-17T09:36:07;13.0;57.7
78461;SHT31;67755;51.986;5.696;2024-03-17T09:38:37;13.1;59.2
78461;SHT31;67755;51.986;5.696;2024-03-17T09:41:07;13.1;58.9
78461;SHT31;67755;51.986;5.696;2024-03-17T09:43:36;13.1;59.3
78461;SHT31;67755;51.986;5.696;2024-03-17T09:46:05;13.2;58.4
78461;SHT31;67755;51.986;5.696;2024-03-17T09:48:35;13.2;59.7
78461;SHT31;67755;51.986;5.696;2024-03-17T09:51:04;13.3;59.8
78461;SHT31;67755;51.986;5.696;2024-03-17T09:53:34;13.3;59.1
78461;SHT31;67755;51.986;5.696;2024-03-17T09:56:09;13.4;59.4
78461;SHT31;67755;51.986;5.696;2024-03-17T09:58:38;13.4;58.4
78461;SHT31;67755;51.986;5.696;2024-03-17T10:01:07;13.5;59.3
78461;SHT31;67755;51.986;5.696;2024-03-17T10:03:44;13.5;61.2
78461;SHT31;67755;51.986;5.696;2024-03-17T10:06:17;13.6;59.4
78461;SHT31;67755;51.986;5.696;2024-03-17T10:08:47;13.7;57.9
78461;SHT31;67755;51.986;5.696;2024-03-17T10:11:18;13.8;57.3
78461;SHT31;67755;51.986;5.696;2024-03-17T10:14:00;13.8;57.2
78461;SHT31;67755;51.986;5.696;2024-03-17T10:16:31;13.9;57.5
78461;SHT31;67755;51.986;5.696;2024-03-17T10:19:08;14.0;58.1
78461;SHT31;67755;51.986;5.696;2024-03-17T10:21:39;14.1;57.6
78461;SHT31;67755;51.986;5.696;2024-03-17T10:24:11;14.2;58.0
78461;SHT31;67755;51.986;5.696;2024-03-17T10:26:41;14.2;55.5
78461;SHT31;67755;51.986;5.696;2024-03-17T10:29:22;14.3;56.2
78461;SHT31;67755;51.986;5.696;2024-03-17T10:31:53;14.4;57.7
78461;SHT31;67755;51.986;5.696;2024-03-17T10:34:23;14.5;56.3
78461;SHT31;67755;51.986;5.696;2024-03-17T10:37:05;14.5;55.8
78461;SHT31;67755;51.986;5.696;2024-03-17T10:39:34;14.6;55.3
78461;SHT31;67755;51.986;5.696;2024-03-17T10:42:05;14.6;55.5
78461;SHT31;67755;51.986;5.696;2024-03-17T10:44:35;14.7;55.6
78461;SHT31;67755;51.986;5.696;2024-03-17T10:47:06;14.7;56.4
78461;SHT31;67755;51.986;5.696;2024-03-17T10:49:38;14.8;56.0
78461;SHT31;67755;51.986;5.696;2024-03-17T10:52:08;14.8;55.5
78461;SHT31;67755;51.986;5.696;2024-03-17T10:54:48;14.9;54.7
78461;SHT31;67755;51.986;5.696;2024-03-17T10:57:27;14.9;54.0
78461;SHT31;67755;51.986;5.696;2024-03-17T11:00:02;14.9;54.0
78461;SHT31;67755;51.986;5.696;2024-03-17T11:02:35;14.9;54.3
78461;SHT31;67755;51.986;5.696;2024-03-17T11:05:14;14.9;55.0
78461;SHT31;67755;51.986;5.696;2024-03-17T11:07:47;15.0;56.2
78461;SHT31;67755;51.986;5.696;2024-03-17T11:10:20;15.0;55.1
78461;SHT31;67755;51.986;5.696;2024-03-17T11:12:50;15.0;55.6
78461;SHT31;67755;51.986;5.696;2024-03-17T11:15:39;15.0;54.4
78461;SHT31;67755;51.986;5.696;2024-03-17T11:21:22;15.1;53.7
78461;SHT31;67755;51.986;5.696;2024-03-17T11:23:59;15.1;53.4
78461;SHT31;67755;51.986;5.696;2024-03-17T11:26:29;15.1;54.1
78461;SHT31;67755;51.986;5.696;2024-03-17T11:29:01;15.2;53.7
78461;SHT31;67755;51.986;5.696;2024-03-17T11:31:38;15.2;53.8
78461;SHT31;67755;51.986;5.696;2024-03-17T11:34:29;15.2;53.9
78461;SHT31;67755;51.986;5.696;2024-03-17T11:36:59;15.2;54.8
78461;SHT31;67755;51.986;5.696;2024-03-17T11:39:52;15.2;55.2
78461;SHT31;67755;51.986;5.696;2024-03-17T11:42:26;15.3;53.9
78461;SHT31;67755;51.986;5.696;2024-03-17T11:44:59;15.3;54.2
78461;SHT31;67755;51.986;5.696;2024-03-17T11:47:35;15.3;54.3
78461;SHT31;67755;51.986;5.696;2024-03-17T11:50:06;15.3;54.4
78461;SHT31;67755;51.986;5.696;2024-03-17T11:52:37;15.3;55.3
78461;SHT31;67755;51.986;5.696;2024-03-17T11:55:15;15.4;54.7
78461;SHT31;67755;51.986;5.696;2024-03-17T11:57:45;15.4;53.8
78461;SHT31;67755;51.986;5.696;2024-03-17T12:00:23;15.4;55.3
78461;SHT31;67755;51.986;5.696;2024-03-17T12:02:53;15.4;55.2
78461;SHT31;67755;51.986;5.696;2024-03-17T12:05:29;15.4;54.7
78461;SHT31;67755;51.986;5.696;2024-03-17T12:07:59;15.4;54.3
78461;SHT31;67755;51.986;5.696;2024-03-17T12:10:29;15.4;54.7
78461;SHT31;67755;51.986;5.696;2024-03-17T12:12:58;15.4;54.6
78461;SHT31;67755;51.986;5.696;2024-03-17T12:15:26;15.4;55.0
78461;SHT31;67755;51.986;5.696;2024-03-17T12:17:55;15.4;53.9
78461;SHT31;67755;51.986;5.696;2024-03-17T12:20:26;15.4;54.8
78461;SHT31;67755;51.986;5.696;2024-03-17T12:22:55;15.3;54.2
78461;SHT31;67755;51.986;5.696;2024-03-17T12:25:25;15.3;55.2
78461;SHT31;67755;51.986;5.696;2024-03-17T12:27:55;15.3;55.0
78461;SHT31;67755;51.986;5.696;2024-03-17T12:30:26;15.3;55.5
78461;SHT31;67755;51.986;5.696;2024-03-17T12:32:57;15.3;55.7
78461;SHT31;67755;51.986;5.696;2024-03-17T12:35:26;15.3;54.9
78461;SHT31;67755;51.986;5.696;2024-03-17T12:37:55;15.3;55.5
78461;SHT31;67755;51.986;5.696;2024-03-17T12:40:25;15.3;55.7
78461;SHT31;67755;51.986;5.696;2024-03-17T12:42:55;15.2;55.2
78461;SHT31;67755;51.986;5.696;2024-03-17T12:45:24;15.2;55.1
78461;SHT31;67755;51.986;5.696;2024-03-17T12:47:53;15.2;57.0
78461;SHT31;67755;51.986;5.696;2024-03-17T12:50:22;15.2;56.1
78461;SHT31;67755;51.986;5.696;2024-03-17T12:52:55;15.2;57.0
78461;SHT31;67755;51.986;5.696;2024-03-17T12:55:24;15.2;56.4
78461;SHT31;67755;51.986;5.696;2024-03-17T12:58:10;15.2;56.0
78461;SHT31;67755;51.986;5.696;2024-03-17T13:00:59;15.2;55.6
78461;SHT31;67755;51.986;5.696;2024-03-17T13:03:31;15.2;56.0
78461;SHT31;67755;51.986;5.696;2024-03-17T13:06:00;15.2;55.7
78461;SHT31;67755;51.986;5.696;2024-03-17T13:08:30;15.2;56.0
78461;SHT31;67755;51.986;5.696;2024-03-17T13:10:59;15.2;56.8
78461;SHT31;67755;51.986;5.696;2024-03-17T13:13:30;15.3;56.2
78461;SHT31;67755;51.986;5.696;2024-03-17T13:15:59;15.3;57.7
78461;SHT31;67755;51.986;5.696;2024-03-17T13:18:28;15.3;57.5
78461;SHT31;67755;51.986;5.696;2024-03-17T13:20:56;15.3;57.0
78461;SHT31;67755;51.986;5.696;2024-03-17T13:23:29;15.3;56.9
78461;SHT31;67755;51.986;5.696;2024-03-17T13:25:58;15.3;56.2
78461;SHT31;67755;51.986;5.696;2024-03-17T13:28:29;15.3;56.7
78461;SHT31;67755;51.986;5.696;2024-03-17T13:30:58;15.3;56.1
78461;SHT31;67755;51.986;5.696;2024-03-17T13:33:27;15.3;57.0
78461;SHT31;67755;51.986;5.696;2024-03-17T13:35:56;15.3;56.6
78461;SHT31;67755;51.986;5.696;2024-03-17T13:38:24;15.4;56.6
78461;SHT31;67755;51.986;5.696;2024-03-17T13:40:54;15.4;57.3
78461;SHT31;67755;51.986;5.696;2024-03-17T13:43:24;15.4;57.5
78461;SHT31;67755;51.986;5.696;2024-03-17T13:45:53;15.4;57.6
78461;SHT31;67755;51.986;5.696;2024-03-17T13:48:22;15.4;57.2
78461;SHT31;67755;51.986;5.696;2024-03-17T13:50:50;15.4;56.6
78461;SHT31;67755;51.986;5.696;2024-03-17T13:53:20;15.4;56.3
78461;SHT31;67755;51.986;5.696;2024-03-17T13:55:49;15.4;56.7
78461;SHT31;67755;51.986;5.696;2024-03-17T13:58:18;15.4;56.6
78461;SHT31;67755;51.986;5.696;2024-03-17T14:00:46;15.4;57.4
78461;SHT31;67755;51.986;5.696;2024-03-17T14:03:14;15.4;56.5
78461;SHT31;67755;51.986;5.696;2024-03-17T14:05:45;15.4;57.9
78461;SHT31;67755;51.986;5.696;2024-03-17T14:08:14;15.5;58.0
78461;SHT31;67755;51.986;5.696;2024-03-17T14:10:42;15.5;58.9
78461;SHT31;67755;51.986;5.696;2024-03-17T14:13:14;15.5;58.6
78461;SHT31;67755;51.986;5.696;2024-03-17T14:15:42;15.5;57.4
78461;SHT31;67755;51.986;5.696;2024-03-17T14:18:13;15.5;58.8
78461;SHT31;67755;51.986;5.696;2024-03-17T14:20:41;15.6;58.3
78461;SHT31;67755;51.986;5.696;2024-03-17T14:23:12;15.6;57.9
78461;SHT31;67755;51.986;5.696;2024-03-17T14:25:40;15.6;57.4
78461;SHT31;67755;51.986;5.696;2024-03-17T14:28:09;15.6;56.9
78461;SHT31;67755;51.986;5.696;2024-03-17T14:30:37;15.6;57.4
78461;SHT31;67755;51.986;5.696;2024-03-17T14:33:06;15.6;56.9
78461;SHT31;67755;51.986;5.696;2024-03-17T14:35:34;15.7;57.4
78461;SHT31;67755;51.986;5.696;2024-03-17T14:38:04;15.7;57.6
78461;SHT31;67755;51.986;5.696;2024-03-17T14:40:33;15.7;58.3
78461;SHT31;67755;51.986;5.696;2024-03-17T14:43:02;15.7;58.3
78461;SHT31;67755;51.986;5.696;2024-03-17T14:45:31;15.8;56.2
78461;SHT31;67755;51.986;5.696;2024-03-17T14:48:03;15.8;57.9
78461;SHT31;67755;51.986;5.696;2024-03-17T14:50:31;15.9;58.7
78461;SHT31;67755;51.986;5.696;2024-03-17T14:53:00;15.9;55.9
78461;SHT31;67755;51.986;5.696;2024-03-17T14:55:28;15.9;56.3
78461;SHT31;67755;51.986;5.696;2024-03-17T14:57:57;16.0;55.2
78461;SHT31;67755;51.986;5.696;2024-03-17T15:00:28;16.0;55.7
78461;SHT31;67755;51.986;5.696;2024-03-17T15:02:58;16.0;55.0
78461;SHT31;67755;51.986;5.696;2024-03-17T15:05:27;16.0;54.4
78461;SHT31;67755;51.986;5.696;2024-03-17T15:07:58;16.0;56.5
78461;SHT31;67755;51.986;5.696;2024-03-17T15:10:28;16.0;55.3
78461;SHT31;67755;51.986;5.696;2024-03-17T15:12:57;16.0;55.2
78461;SHT31;67755;51.986;5.696;2024-03-17T15:15:27;16.1;55.8
78461;SHT31;67755;51.986;5.696;2024-03-17T15:18:01;16.1;55.5
78461;SHT31;67755;51.986;5.696;2024-03-17T15:20:30;16.1;56.5
78461;SHT31;67755;51.986;5.696;2024-03-17T15:22:58;16.1;57.0
78461;SHT31;67755;51.986;5.696;2024-03-17T15:25:27;16.1;55.3
78461;SHT31;67755;51.986;5.696;2024-03-17T15:27:56;16.1;56.0
78461;SHT31;67755;51.986;5.696;2024-03-17T15:30:26;16.1;55.6
78461;SHT31;67755;51.986;5.696;2024-03-17T15:32:55;16.1;56.3
78461;SHT31;67755;51.986;5.696;2024-03-17T15:35:24;16.1;56.6
78461;SHT31;67755;51.986;5.696;2024-03-17T15:37:58;16.1;55.1
78461;SHT31;67755;51.986;5.696;2024-03-17T15:40:26;16.2;55.9
78461;SHT31;67755;51.986;5.696;2024-03-17T15:42:55;16.2;57.3
78461;SHT31;67755;51.986;5.696;2024-03-17T15:45:25;16.2;57.3
78461;SHT31;67755;51.986;5.696;2024-03-17T15:47:55;16.2;56.0
78461;SHT31;67755;51.986;5.696;2024-03-17T15:50:27;16.2;55.4
78461;SHT31;67755;51.986;5.696;2024-03-17T15:52:57;16.2;56.1
78461;SHT31;67755;51.986;5.696;2024-03-17T15:55:26;16.2;55.5
78461;SHT31;67755;51.986;5.696;2024-03-17T15:57:54;16.2;56.0
78461;SHT31;67755;51.986;5.696;2024-03-17T16:00:23;16.1;56.3
78461;SHT31;67755;51.986;5.696;2024-03-17T16:02:53;16.1;57.5
78461;SHT31;67755;51.986;5.696;2024-03-17T16:05:22;16.1;57.2
78461;SHT31;67755;51.986;5.696;2024-03-17T16:07:54;16.1;57.7
78461;SHT31;67755;51.986;5.696;2024-03-17T16:10:26;16.1;57.4
78461;SHT31;67755;51.986;5.696;2024-03-17T16:12:56;16.1;57.5
78461;SHT31;67755;51.986;5.696;2024-03-17T16:15:24;16.1;58.0
78461;SHT31;67755;51.986;5.696;2024-03-17T16:17:56;16.1;58.1
78461;SHT31;67755;51.986;5.696;2024-03-17T16:20:59;16.1;57.5
78461;SHT31;67755;51.986;5.696;2024-03-17T16:23:31;16.1;56.6